Meteo Giornale » Osservazioni meteo Svezia » Stockholm-Arlanda

ore: 07:50 - Osservazioni Meteo Stockholm-Arlanda
Lat. 59° 39' N Lon. 17° 57' E Alt. 38 metri s.l.m.

sereno Europe/Stockholm

7 °C

Sereno

Temp. 24 Ore

0 °C

20 °C

Sud/Sud-Est

13 Km/h

Dew point 1 °C

Umidità 65 %

Visibilità  10 Km

Il sole sorge alle ore 05:12

Il sole tramonta alle ore 20:21

Data e Ora Cielo e Fenomeni T °C DP °C Um. % Pres. hPa Vis. km Vento km/h
Oggi h: 07:50 sereno Sereno 7 1 65 1023 10 S/SE 13
Oggi h: 07:20 sereno Sereno 6 1 70 1023 10 SE 13
Oggi h: 06:50 sereno Sereno 5 0 70 1023 10 SE 7.4
Oggi h: 06:20 sereno Sereno 3 -0 80 1023 10 S/SE 9.3
Oggi h: 05:50 sereno Sereno 1 -2 80 1023 10 E/SE 7.4
Oggi h: 05:20 sereno Sereno 0 -2 86 1023 10 N 3.7
Oggi h: 04:50 sereno Sereno 1 -1 86 1023 10 N 5.5
Oggi h: 04:20 sereno Sereno 0 -2 86 1023 10 N 5.5
Oggi h: 03:50 sereno Sereno 1 -2 80 1023 10 N 5.5
Oggi h: 03:20 sereno Sereno 3 -1 74 1024 10 N 5.5
Oggi h: 02:50 sereno Sereno 2 -1 80 1024 10 N 5.5
Oggi h: 02:20 sereno Sereno 5 -1 65 1024 10 N 5.5
Oggi h: 01:50 sereno Sereno 3 -1 74 1024 10 N 5.5
Oggi h: 01:20 sereno Sereno 5 -1 65 1024 10 N 5.5
Oggi h: 00:50 sereno Sereno 6 -1 60 1025 10 N 5.5
Oggi h: 00:20 sereno Sereno 7 -1 56 1025 10 N 5.5
Ieri h: 23:50 sereno Sereno 8 -1 52 1025 10 SE 9.3
Ieri h: 23:20 sereno Sereno 8 -1 52 1025 10 SE 9.3
Ieri h: 22:50 sereno Sereno 9 -1 49 1026 10 SE 9.3
Ieri h: 22:20 sereno Sereno 9 -0 53 1026 10 SE 11.1
Ieri h: 21:50 sereno Sereno 10 -0 49 1026 10 SE 11.1
Ieri h: 21:20 sereno Sereno 11 -0 46 1026 10 E/SE 11.1
Ieri h: 20:50 sereno Sereno 12 -0 43 1027 10 E 13
Ieri h: 20:20 sereno Sereno 13 -0 40 1027 10 E 13
Ieri h: 19:50 sereno Sereno 14 0 38 1027 10 E/SE 14.8
Ieri h: 19:20 sereno Sereno 15 0 35 1027 10 E 18.5
Ieri h: 18:50 sereno Sereno 16 1 36 1027 10 E/SE 18.5
Ieri h: 18:20 sereno Sereno 20 -2 22 1027 10 SE 18.5
Ieri h: 17:50 sereno Sereno 20 -1 24 1027 10 O 13
Ieri h: 17:20 sereno Sereno 20 -1 24 1027 10 O/SO 14.8
Ieri h: 16:50 sereno Sereno 20 -1 24 1028 10 O 16.7
Ieri h: 16:20 sereno Sereno 20 -1 24 1028 10 NO 9.3
Ieri h: 15:50 sereno Sereno 20 -1 24 1028 10 NO 11.1
Ieri h: 15:20 sereno Sereno 20 -0 26 1029 10 O 11.1
Ieri h: 14:50 sereno Sereno 19 -0 27 1029 10 O/NO 11.1
Ieri h: 14:20 sereno Sereno 19 -1 25 1030 10 O/NO 16.7
Ieri h: 13:50 sereno Sereno 19 -0 27 1030 10 N/NO 14.8
Ieri h: 13:20 sereno Sereno 18 -1 27 1030 10 O/SO 13
Ieri h: 12:50 sereno Sereno 18 -0 29 1031 10 N 9.3
Ieri h: 12:20 sereno Sereno 17 -0 31 1031 10 O/NO 9.3
Ieri h: 11:50 sereno Sereno 16 -0 33 1031 10 O/SO 11.1
Ieri h: 11:20 sereno Sereno 16 -0 33 1032 10 SO 7.4
Ieri h: 10:50 sereno Sereno 15 1 38 1032 10 N 3.7
Ieri h: 10:20 sereno Sereno 14 1 41 1032 10 N 3.7
Ieri h: 09:50 sereno Sereno 12 1 46 1033 10 N 3.7
Ieri h: 09:20 sereno Sereno 8 0 56 1033 10 N 0
Ieri h: 08:50 sereno Sereno 8 0 56 1033 10 N 0